Historyczne dane pomiarowe

Dodano dane terminowe – wersja testowa.

Dane z okresu 1951-2019

Wersja bazy: 1.34 [2019-03-16, lista zmian], aktualizacja planowana na 2019-04-15

Dane meteo z obszaru Polski uzyskane na podstawie danych udostępnionych przez Instytut Meteorologii i Gospodarki Wodnej – Państwowy Instytut Badawczy.

 

Wybierz Datę:    

       

TemperaturaWilgotnośćWiatrCiśnienieOpadyŚniegCzas trwania zjawisk
 Stacja t tx tn tng RH VA  wxwx mslp ppp RRR   cm mm wxwxwxwxwxwxwx
1983-08-14 14.3 19.4 8.5 6.0 67.8- 2.3 2.0---- 0.0------------
1983-08-13 15.7 22.3 13.2 12.5 77.5- 7.7 4.0---- 7.5------------
1983-08-12 21.8 26.6 15.5 12.0 52.8- 0.0 2.3---- 2.1------------
1983-08-11 21.7 27.5 15.0 12.7 60.5- 0.0 1.0---- 0.0------------
1983-08-10 21.2 26.3 14.6 10.1 62.3- 0.7 1.3---- 0.0------------
1983-08-09 21.5 27.7 15.0 13.3 60.8- 1.7 2.0---- 0.0------------
1983-08-08 19.8 26.5 14.3 12.4 82.0- 5.7 1.7---- 0.0------------
1983-08-07 18.4 24.5 15.5 12.3 81.0- 6.0 2.0---- 10.7------------
1983-08-06 16.5 22.4 9.6 6.3 72.3- 2.3 1.3---- 1.1------------
1983-08-05 14.5 19.9 11.6 10.6 74.5- 5.7 2.0---- 0.0------------
1983-08-04 14.3 22.3 13.0 11.9 87.0- 7.3 2.0---- 5.2------------
1983-08-03 19.6 24.5 16.8 16.3 88.0- 7.3 3.0---- 2.0------------
1983-08-02 22.5 29.5 12.0 10.4 53.8- 4.3 2.7---- 5.3------------
1983-08-01 21.2 29.0 12.1 7.8 47.8- 0.0 4.0---- 0.0------------
1983-07-31 18.8 25.4 11.6 8.9 56.3- 1.0 0.7---- 0.0------------
1983-07-30 17.8 22.6 14.7 14.7 71.5- 7.0 5.3---- 0.5------------
1983-07-29 19.6 27.0 14.0 11.4 63.0- 4.3 2.7---- 1.5------------
1983-07-28 24.3 28.5 19.4 14.4 57.0- 4.3 5.3---- 0.0------------
1983-07-27 24.6 32.0 15.3 10.9 60.5- 1.7 0.0---- 0.0------------
1983-07-26 21.9 29.0 14.8 12.9 61.5- 1.7 2.7---- 0.0------------
1983-07-25 15.8 24.1 9.7 5.5 77.0- 6.7 1.7---- 0.0------------
1983-07-24 16.8 20.5 14.6 13.9 76.3- 4.0 1.3---- 0.1------------
1983-07-23 17.0 21.9 13.0 9.3 69.5- 6.0 3.7---- 0.6------------
1983-07-22 14.8 19.3 12.0 9.8 67.0- 5.3 3.7---- 0.0------------
1983-07-21 13.9 19.5 10.0 7.5 60.0- 5.0 3.7---- 0.0------------
1983-07-20 14.4 24.4 11.0 11.5 73.5- 7.3 2.7---- 9.2------------
1983-07-19 24.0 27.2 20.9 19.0 53.8- 5.0 4.7---- 0.0------------
1983-07-18 21.8 30.9 11.1 7.5 59.0- 0.3 2.0---- 0.0------------
1983-07-17 19.8 24.4 14.8 12.4 64.5- 1.3 1.7---- 0.0------------
1983-07-16 22.0 28.1 14.6 9.4 57.8- 3.7 3.3---- 4.7------------
1983-07-15 19.0 26.1 11.0 7.0 60.3- 2.3 1.7---- 0.0------------
1983-07-14 20.1 25.6 16.7 16.0 74.8- 5.7 3.0---- 0.0------------
1983-07-13 20.6 26.8 15.2 10.2 74.5- 4.3 2.7---- 9.0------------
1983-07-12 20.3 24.3 16.2 14.9 84.3- 5.3 1.3---- 17.1------------
1983-07-11 21.2 27.1 17.5 15.5 73.5- 5.7 2.7---- 2.7------------
1983-07-10 23.1 29.7 14.5 10.5 50.3- 2.3 2.7---- 0.0------------
1983-07-09 22.2 28.3 13.1 8.0 53.3- 1.7 1.0---- 0.0------------
1983-07-08 20.1 27.0 11.4 5.4 51.8- 0.0 2.0---- 0.0------------
1983-07-07 21.2 27.0 11.6 7.5 52.5- 0.0 1.7---- 0.0------------
1983-07-06 21.5 28.0 11.4 7.0 59.5- 0.3 1.0---- 0.0------------
1983-07-05 19.3 24.3 13.0 10.3 58.8- 0.3 1.7---- 0.0------------
1983-07-04 21.0 27.0 12.5 8.4 53.0- 1.7 1.7---- 0.0------------
1983-07-03 19.5 25.3 10.3 5.5 54.3- 0.7 0.7---- 0.0------------
1983-07-02 18.7 24.1 15.0 11.2 69.0- 3.0 2.0---- 0.0------------
1983-07-01 22.1 27.0 11.0 6.0 63.0- 2.7 1.0---- 0.0------------
1983-06-30 17.3 24.4 9.5 5.5 56.5- 0.0 1.7---- 0.0------------
1983-06-29 14.6 20.4 10.1 7.0 53.5- 2.3 1.7---- 0.0------------
1983-06-28 16.3 22.1 14.6 13.3 72.5- 6.7 3.3---- 0.0------------
1983-06-27 19.8 26.0 13.6 8.5 75.0- 5.7 1.7---- 2.8------------
1983-06-26 21.0 25.9 15.3 13.0 54.5- 0.3 1.7---- 0.0------------
1983-06-25 21.6 29.8 15.4 8.6 52.8- 5.0 4.0---- 0.0------------
1983-06-24 19.5 27.4 8.4 2.1 42.5- 0.0 1.7---- 0.0------------
1983-06-23 14.9 21.9 5.7 4.3 50.0- 0.0 2.0---- 0.0------------
1983-06-22 13.1 20.8 6.9 4.1 55.8- 0.0 1.7---- 0.0------------
1983-06-21 19.6 24.1 12.5 7.5 57.5- 0.3 2.7---- 0.0------------
1983-06-20 20.2 24.7 14.6 12.9 61.5- 3.3 2.0---- 0.0------------
1983-06-19 17.2 19.9 13.6 12.7 80.0- 7.7 2.7---- 0.0------------
1983-06-18 14.1 17.4 11.3 9.9 81.3- 7.0 2.3---- 0.0------------
1983-06-17 13.2 18.1 8.0 5.4 70.3- 7.3 2.3---- 0.0------------
1983-06-16 12.6 16.9 9.3 8.4 77.8- 4.0 3.3---- 0.0------------
2393.1 ms

 

Źródłem pochodzenia danych jest Instytut Meteorologii i Gospodarki Wodnej – Państwowy Instytut Badawczy. Dane Instytutu Meteorologii i Gospodarki Wodnej – Państwowego Instytutu Badawczego zostały przetworzone.

Dane źródłowe można odnaleźć na stronie https://dane.imgw.pl